createdAt,value
2023-04-12T00:01:40.165Z,31.23
2023-04-12T00:04:07.989Z,35.10
2023-04-12T00:06:36.457Z,47.13
2023-04-12T00:09:04.413Z,40.17
2023-04-12T00:11:32.148Z,43.13
2023-04-12T00:13:59.729Z,40.45
2023-04-12T00:16:27.262Z,43.08
2023-04-12T00:18:55.462Z,37.00
2023-04-12T00:21:23.769Z,35.78
2023-04-12T00:23:51.852Z,34.65
2023-04-12T00:26:19.150Z,31.65
2023-04-12T00:28:46.774Z,29.02
2023-04-12T00:31:14.155Z,28.15
2023-04-12T00:33:41.832Z,23.73
2023-04-12T00:36:09.404Z,26.05
2023-04-12T00:38:37.052Z,27.25
2023-04-12T00:41:04.336Z,29.50
2023-04-12T00:43:31.934Z,15.55
2023-04-12T00:45:59.360Z,19.58
2023-04-12T00:48:27.408Z,18.45
2023-04-12T00:50:57.893Z,14.52
2023-04-12T00:53:25.541Z,11.52
2023-04-12T00:55:53.076Z,8.90
2023-04-12T00:58:22.256Z,10.25
2023-04-12T01:00:55.476Z,7.93
2023-04-12T01:03:27.685Z,10.73
2023-04-12T01:05:55.751Z,7.70
2023-04-12T01:08:37.762Z,8.80
2023-04-12T01:11:13.316Z,7.40
2023-04-12T01:13:40.957Z,7.05
2023-04-12T01:16:12.598Z,9.02
2023-04-12T01:18:41.622Z,8.27
2023-04-12T01:21:15.655Z,8.20
2023-04-12T01:23:45.990Z,8.55
2023-04-12T01:26:22.387Z,10.07
2023-04-12T01:28:52.967Z,6.10
2023-04-12T01:31:21.523Z,8.95
2023-04-12T01:33:50.438Z,10.02
2023-04-12T01:36:21.372Z,9.07
2023-04-12T01:38:49.267Z,6.05
2023-04-12T01:41:16.767Z,8.75
2023-04-12T01:43:45.542Z,8.88
2023-04-12T01:46:16.755Z,15.10
2023-04-12T01:48:49.675Z,8.80
2023-04-12T01:51:32.568Z,8.93
2023-04-12T01:54:02.979Z,11.80
2023-04-12T01:56:31.559Z,7.10
2023-04-12T01:59:00.851Z,8.13
2023-04-12T02:01:29.208Z,9.30
2023-04-12T02:04:00.849Z,10.27
2023-04-12T02:06:28.688Z,9.05
2023-04-12T02:09:00.626Z,11.80
2023-04-12T02:11:27.885Z,10.10
2023-04-12T02:13:56.008Z,10.35
2023-04-12T02:16:23.608Z,9.15
2023-04-12T02:18:51.726Z,9.40
2023-04-12T02:21:19.317Z,10.88
2023-04-12T02:23:46.948Z,9.13
2023-04-12T02:26:14.220Z,10.40
2023-04-12T02:28:42.440Z,9.50
2023-04-12T02:31:09.937Z,8.95
2023-04-12T02:33:37.779Z,9.82
2023-04-12T02:36:05.276Z,12.95
2023-04-12T02:38:32.884Z,10.27
2023-04-12T02:41:00.411Z,8.68
2023-04-12T02:43:28.053Z,10.57
2023-04-12T02:45:55.381Z,10.23
2023-04-12T02:48:22.936Z,10.02
2023-04-12T02:50:50.276Z,10.95
2023-04-12T02:53:17.836Z,8.50
2023-04-12T02:55:45.312Z,11.10
2023-04-12T02:58:13.528Z,13.27
2023-04-12T03:00:42.360Z,10.82
2023-04-12T03:03:10.187Z,11.27
2023-04-12T03:05:38.089Z,9.27
2023-04-12T03:08:05.798Z,11.23
2023-04-12T03:10:33.108Z,11.60
2023-04-12T03:13:00.955Z,9.57
2023-04-12T03:15:29.357Z,13.88
2023-04-12T03:17:57.025Z,13.48
2023-04-12T03:20:25.169Z,11.02
2023-04-12T03:22:52.772Z,10.55
2023-04-12T03:25:20.187Z,9.13
2023-04-12T03:27:47.847Z,12.45
2023-04-12T03:30:15.307Z,11.55
2023-04-12T03:32:43.289Z,9.15
2023-04-12T03:35:11.292Z,10.80
2023-04-12T03:37:42.048Z,10.13
2023-04-12T03:40:10.717Z,12.32
2023-04-12T03:42:38.519Z,9.93
2023-04-12T03:45:06.097Z,12.73
2023-04-12T03:47:33.746Z,9.80
2023-04-12T03:50:11.994Z,12.13
2023-04-12T03:52:40.465Z,13.75
2023-04-12T03:55:08.243Z,17.88
2023-04-12T03:57:36.391Z,17.80
2023-04-12T04:00:04.241Z,16.23
2023-04-12T04:02:32.118Z,21.92
2023-04-12T04:04:59.876Z,21.23
2023-04-12T04:07:28.018Z,23.48
2023-04-12T04:09:55.967Z,17.75
2023-04-12T04:12:23.846Z,9.82
2023-04-12T04:14:51.145Z,18.52
2023-04-12T04:17:18.802Z,14.45
2023-04-12T04:19:46.192Z,13.35
2023-04-12T04:22:13.886Z,13.52
2023-04-12T04:24:41.231Z,16.77
2023-04-12T04:27:08.855Z,23.70
2023-04-12T04:29:45.303Z,51.53
2023-04-12T04:32:13.432Z,33.33
2023-04-12T04:34:41.482Z,28.30
2023-04-12T04:37:09.667Z,11.10
2023-04-12T04:39:37.356Z,17.05
2023-04-12T04:42:06.619Z,13.60
2023-04-12T04:44:35.738Z,16.27
2023-04-12T04:47:04.977Z,15.13
2023-04-12T04:49:33.793Z,17.48
2023-04-12T04:52:02.269Z,14.68
2023-04-12T04:54:29.520Z,21.08
2023-04-12T04:56:57.313Z,16.08
2023-04-12T04:59:24.597Z,14.05
2023-04-12T05:01:52.439Z,17.20
2023-04-12T05:04:19.943Z,15.80
2023-04-12T05:06:47.549Z,16.45
2023-04-12T05:09:14.875Z,12.77
2023-04-12T05:11:42.479Z,11.80
2023-04-12T05:14:12.004Z,12.30
2023-04-12T05:16:40.272Z,13.85
2023-04-12T05:19:07.618Z,13.82
2023-04-12T05:21:35.486Z,11.15
2023-04-12T05:24:02.816Z,11.40
2023-04-12T05:26:30.614Z,12.43
2023-04-12T05:28:58.107Z,12.93
2023-04-12T05:31:25.882Z,16.48
2023-04-12T05:33:54.446Z,8.90
2023-04-12T05:36:22.091Z,10.90
2023-04-12T05:38:49.376Z,11.82
2023-04-12T05:41:17.674Z,9.63
2023-04-12T05:43:45.081Z,9.13
2023-04-12T05:46:12.841Z,10.15
2023-04-12T05:48:40.161Z,11.63
2023-04-12T05:51:08.045Z,12.32
2023-04-12T05:53:35.392Z,12.68
2023-04-12T05:56:03.033Z,14.13
2023-04-12T05:58:30.319Z,11.85
2023-04-12T06:00:58.554Z,10.25
2023-04-12T06:03:26.598Z,10.55
2023-04-12T06:05:54.582Z,16.77
2023-04-12T06:08:21.963Z,13.65
2023-04-12T06:10:49.931Z,15.02
2023-04-12T06:13:17.252Z,12.70
2023-04-12T06:15:44.924Z,15.55
2023-04-12T06:18:12.992Z,15.95
2023-04-12T06:20:40.970Z,13.50
2023-04-12T06:23:08.236Z,12.70
2023-04-12T06:25:35.949Z,13.48
2023-04-12T06:28:03.263Z,11.25
2023-04-12T06:30:31.161Z,8.43
2023-04-12T06:32:58.607Z,10.63
2023-04-12T06:35:26.267Z,7.57
2023-04-12T06:37:53.656Z,8.68
2023-04-12T06:40:21.372Z,9.35
2023-04-12T06:42:48.692Z,12.13
2023-04-12T06:45:16.331Z,15.82
2023-04-12T06:47:43.631Z,11.02
2023-04-12T06:50:11.653Z,13.30
2023-04-12T06:52:38.983Z,17.38
2023-04-12T06:55:07.482Z,15.18
2023-04-12T06:57:34.849Z,15.27
2023-04-12T07:00:03.829Z,18.85
2023-04-12T07:02:31.266Z,16.33
2023-04-12T07:04:59.031Z,15.60
2023-04-12T07:07:26.350Z,15.85
2023-04-12T07:09:53.960Z,17.50
2023-04-12T07:12:21.369Z,15.23
2023-04-12T07:14:49.228Z,15.40
2023-04-12T07:17:16.524Z,14.35
2023-04-12T07:19:44.521Z,18.48
2023-04-12T07:22:13.604Z,13.40
2023-04-12T07:24:41.813Z,17.90
2023-04-12T07:27:09.152Z,11.95
2023-04-12T07:29:37.324Z,14.85
2023-04-12T07:32:04.684Z,12.80
2023-04-12T07:34:32.321Z,12.18
2023-04-12T07:37:01.009Z,11.25
2023-04-12T07:39:31.878Z,12.23
2023-04-12T07:41:59.221Z,10.45
2023-04-12T07:44:27.135Z,10.30
2023-04-12T07:46:54.449Z,19.70
2023-04-12T07:49:22.045Z,11.73
2023-04-12T07:51:49.406Z,7.88
2023-04-12T07:54:17.049Z,12.40
2023-04-12T07:56:58.235Z,8.20
2023-04-12T07:59:26.114Z,12.57
2023-04-12T08:01:53.482Z,11.40
2023-04-12T08:04:21.521Z,9.18
2023-04-12T08:06:48.903Z,9.35
2023-04-12T08:09:16.541Z,7.70
2023-04-12T08:11:43.924Z,10.80
2023-04-12T08:14:11.712Z,7.97
2023-04-12T08:16:39.108Z,9.68
2023-04-12T08:19:07.262Z,12.18
2023-04-12T08:21:34.820Z,11.98
2023-04-12T08:24:02.622Z,8.75
2023-04-12T08:26:29.970Z,9.10
2023-04-12T08:28:58.405Z,9.85
2023-04-12T08:31:25.777Z,14.10
2023-04-12T08:33:53.351Z,11.05
2023-04-12T08:36:20.903Z,11.23
2023-04-12T08:38:52.328Z,10.00
2023-04-12T08:41:20.699Z,9.30
2023-04-12T08:43:48.803Z,9.00
2023-04-12T08:46:16.930Z,10.48
2023-04-12T08:48:49.591Z,7.40
2023-04-12T08:51:20.635Z,10.70
2023-04-12T08:53:48.607Z,10.85
2023-04-12T08:56:16.820Z,11.32
2023-04-12T08:58:51.097Z,9.88
2023-04-12T09:01:19.969Z,18.85
2023-04-12T09:03:47.728Z,11.77
2023-04-12T09:06:15.730Z,11.55
2023-04-12T09:08:56.597Z,11.77
2023-04-12T09:11:26.372Z,11.85
2023-04-12T09:13:55.294Z,9.68
2023-04-12T09:16:34.496Z,10.75
2023-04-12T09:19:05.088Z,10.88
2023-04-12T09:21:34.715Z,10.18
2023-04-12T09:24:03.417Z,11.32
2023-04-12T09:26:31.561Z,12.38
2023-04-12T09:28:59.187Z,12.63
2023-04-12T09:31:26.812Z,14.25
2023-04-12T09:34:06.764Z,18.15
2023-04-12T09:36:40.786Z,12.13
2023-04-12T09:39:09.084Z,13.38
2023-04-12T09:41:36.752Z,12.98
2023-04-12T09:44:04.865Z,14.02
2023-04-12T09:46:32.477Z,15.40
2023-04-12T09:49:03.381Z,14.40
2023-04-12T09:51:32.566Z,13.40
2023-04-12T09:54:05.657Z,12.32
2023-04-12T09:56:34.116Z,16.45
2023-04-12T09:59:04.332Z,12.90
2023-04-12T10:01:36.955Z,12.30
2023-04-12T10:04:07.088Z,10.85
2023-04-12T10:06:34.849Z,14.30
2023-04-12T10:09:06.597Z,19.33
2023-04-12T10:11:34.246Z,18.48
2023-04-12T10:14:06.942Z,11.23
2023-04-12T10:16:35.701Z,14.93
2023-04-12T10:19:04.208Z,13.15
2023-04-12T10:21:31.874Z,12.98
2023-04-12T10:24:00.201Z,18.65
2023-04-12T10:26:27.532Z,13.07
2023-04-12T10:29:14.084Z,13.15
2023-04-12T10:31:42.210Z,11.52
2023-04-12T10:34:10.334Z,14.07
2023-04-12T10:36:56.227Z,10.35
2023-04-12T10:39:36.514Z,11.80
2023-04-12T10:42:30.077Z,14.95
2023-04-12T10:47:50.876Z,17.60
2023-04-12T10:50:26.288Z,13.10
2023-04-12T10:53:21.884Z,12.52
2023-04-12T10:55:49.702Z,14.57
2023-04-12T10:58:35.491Z,12.73
2023-04-12T11:01:12.139Z,14.57
2023-04-12T11:03:59.686Z,12.68
2023-04-12T11:06:46.294Z,14.65
2023-04-12T11:09:23.721Z,12.50
2023-04-12T11:11:52.218Z,13.65
2023-04-12T11:14:24.989Z,16.58
2023-04-12T11:19:40.360Z,23.60
2023-04-12T11:22:13.222Z,15.40
2023-04-12T11:24:44.367Z,13.88
2023-04-12T11:27:12.742Z,13.65
2023-04-12T11:29:40.254Z,16.15
2023-04-12T11:32:12.622Z,14.15
2023-04-12T11:34:40.732Z,16.08
2023-04-12T11:37:08.801Z,16.90
2023-04-12T11:39:37.108Z,12.68
2023-04-12T11:42:04.945Z,15.30
2023-04-12T11:44:47.904Z,14.10
2023-04-12T11:47:20.869Z,16.60
2023-04-12T11:49:49.459Z,16.15
2023-04-12T11:52:17.496Z,13.77
2023-04-12T11:54:51.536Z,14.95
2023-04-12T11:57:19.883Z,17.13
2023-04-12T11:59:48.669Z,16.40
2023-04-12T12:02:23.242Z,16.75
2023-04-12T12:04:52.308Z,24.92
2023-04-12T12:07:21.767Z,16.30
2023-04-12T12:09:49.879Z,15.05
2023-04-12T12:12:17.694Z,20.27
2023-04-12T12:14:47.499Z,17.10
2023-04-12T12:17:16.264Z,13.65
2023-04-12T12:19:46.104Z,15.10
2023-04-12T12:22:15.673Z,13.35
2023-04-12T12:24:53.114Z,14.75
2023-04-12T12:27:30.579Z,13.48
2023-04-12T12:30:01.555Z,20.25
2023-04-12T12:32:34.850Z,16.35
2023-04-12T12:35:02.302Z,18.35
2023-04-12T12:37:30.993Z,16.02
2023-04-12T12:40:01.447Z,19.10
2023-04-12T12:42:29.096Z,19.48
2023-04-12T12:44:56.556Z,16.45
2023-04-12T12:47:24.378Z,16.20
2023-04-12T12:49:51.721Z,15.60
2023-04-12T12:52:19.503Z,19.23
2023-04-12T12:54:46.958Z,14.90
2023-04-12T12:57:14.917Z,16.63
2023-04-12T12:59:42.230Z,17.52
2023-04-12T13:02:09.943Z,20.83
2023-04-12T13:04:37.813Z,16.30
2023-04-12T13:07:05.953Z,18.10
2023-04-12T13:09:33.332Z,16.10
2023-04-12T13:12:01.939Z,19.15
2023-04-12T13:14:29.335Z,21.20
2023-04-12T13:16:56.961Z,18.42
2023-04-12T13:19:24.399Z,17.70
2023-04-12T13:21:53.238Z,18.52
2023-04-12T13:24:20.851Z,18.55
2023-04-12T13:26:48.995Z,21.80
2023-04-12T13:29:16.558Z,21.05
2023-04-12T13:31:44.352Z,18.05
2023-04-12T13:34:11.797Z,24.85
2023-04-12T13:36:39.659Z,18.48
2023-04-12T13:39:07.047Z,19.48
2023-04-12T13:41:34.932Z,19.30
2023-04-12T13:44:02.432Z,20.55
2023-04-12T13:46:30.250Z,18.05
2023-04-12T13:48:57.696Z,15.20
2023-04-12T13:51:26.750Z,15.77
2023-04-12T13:53:54.154Z,17.73
2023-04-12T13:56:21.874Z,17.40
2023-04-12T13:58:49.224Z,13.85
2023-04-12T14:01:17.232Z,17.27
2023-04-12T14:03:44.914Z,15.13
2023-04-12T14:06:12.753Z,14.30
2023-04-12T14:08:40.175Z,16.38
2023-04-12T14:11:07.821Z,14.10
2023-04-12T14:13:35.146Z,12.57
2023-04-12T14:16:03.012Z,11.73
2023-04-12T14:18:30.473Z,13.27
2023-04-12T14:20:59.247Z,12.70
2023-04-12T14:23:26.711Z,13.02
2023-04-12T14:25:55.517Z,14.63
2023-04-12T14:28:24.239Z,12.65
2023-04-12T14:30:52.004Z,12.38
2023-04-12T14:33:19.804Z,14.07
2023-04-12T14:35:48.615Z,10.73
2023-04-12T14:38:15.969Z,12.93
2023-04-12T14:40:43.687Z,12.85
2023-04-12T14:43:11.083Z,11.48
2023-04-12T14:45:38.785Z,12.60
2023-04-12T14:48:06.716Z,11.10
2023-04-12T14:50:34.663Z,12.80
2023-04-12T14:53:02.176Z,11.30
2023-04-12T14:55:29.812Z,12.98
2023-04-12T14:57:57.123Z,12.02
2023-04-12T15:00:24.882Z,13.27
2023-04-12T15:02:52.226Z,14.35
2023-04-12T15:05:20.486Z,14.82
2023-04-12T15:07:49.107Z,14.05
2023-04-12T15:10:18.060Z,18.80
2023-04-12T15:12:45.583Z,19.05
2023-04-12T15:15:13.381Z,18.35
2023-04-12T15:17:40.748Z,18.23
2023-04-12T15:20:13.234Z,13.57
2023-04-12T15:22:40.946Z,11.77
2023-04-12T15:25:09.628Z,14.05
2023-04-12T15:27:37.657Z,12.63
2023-04-12T15:30:08.238Z,11.40
2023-04-12T15:32:42.410Z,12.98
2023-04-12T15:35:25.334Z,11.60
2023-04-12T15:40:23.227Z,11.90
2023-04-12T15:42:50.629Z,10.50
2023-04-12T15:45:18.222Z,10.98
2023-04-12T15:47:46.456Z,11.30
2023-04-12T15:50:14.364Z,10.07
2023-04-12T15:52:44.171Z,15.10
2023-04-12T15:55:12.105Z,10.52
2023-04-12T15:57:39.450Z,12.13
2023-04-12T16:00:27.002Z,11.85
2023-04-12T16:02:56.315Z,11.27
2023-04-12T16:05:24.736Z,11.38
2023-04-12T16:07:52.078Z,11.05
2023-04-12T16:10:21.118Z,10.93
2023-04-12T16:12:49.663Z,9.13
2023-04-12T16:15:18.184Z,8.25
2023-04-12T16:17:48.476Z,9.45
2023-04-12T16:20:21.681Z,14.50
2023-04-12T16:22:49.486Z,10.20
2023-04-12T16:25:17.227Z,9.30
2023-04-12T16:27:44.990Z,7.40
2023-04-12T16:30:15.613Z,9.68
2023-04-12T16:32:46.663Z,7.00
2023-04-12T16:35:14.891Z,11.88
2023-04-12T16:37:42.714Z,15.45
2023-04-12T16:40:13.677Z,10.38
2023-04-12T16:42:44.533Z,8.95
2023-04-12T16:45:14.557Z,8.30
2023-04-12T16:47:42.073Z,10.43
2023-04-12T16:50:10.075Z,12.27
2023-04-12T16:52:38.183Z,12.75
2023-04-12T16:55:06.635Z,12.38
2023-04-12T16:57:33.950Z,19.23
2023-04-12T17:00:01.578Z,11.63
2023-04-12T17:02:29.164Z,12.68
2023-04-12T17:04:57.302Z,15.68
2023-04-12T17:07:24.826Z,11.70
2023-04-12T17:09:52.707Z,12.05
2023-04-12T17:12:19.991Z,12.23
2023-04-12T17:14:47.749Z,11.48
2023-04-12T17:17:15.369Z,12.90
2023-04-12T17:19:44.408Z,25.20
2023-04-12T17:22:11.755Z,27.38
2023-04-12T17:24:40.297Z,27.63
2023-04-12T17:27:07.654Z,30.13
2023-04-12T17:29:35.491Z,32.08
2023-04-12T17:32:04.185Z,33.00
2023-04-12T17:34:32.252Z,27.40
2023-04-12T17:36:59.552Z,13.55
2023-04-12T17:39:27.444Z,13.93
2023-04-12T17:41:54.713Z,12.70
2023-04-12T17:44:22.588Z,12.52
2023-04-12T17:46:50.211Z,11.80
2023-04-12T17:49:17.870Z,15.48
2023-04-12T17:51:45.274Z,16.88
2023-04-12T17:54:12.832Z,20.77
2023-04-12T17:56:40.616Z,19.60
2023-04-12T17:59:10.561Z,14.63
2023-04-12T18:01:38.067Z,16.70
2023-04-12T18:04:07.022Z,11.43
2023-04-12T18:06:34.682Z,10.10
2023-04-12T18:09:02.874Z,12.77
2023-04-12T18:11:30.484Z,10.25
2023-04-12T18:13:59.064Z,12.63
2023-04-12T18:16:28.149Z,7.68
2023-04-12T18:18:56.148Z,9.73
2023-04-12T18:21:23.928Z,10.88
2023-04-12T18:23:52.066Z,9.93
2023-04-12T18:26:19.612Z,10.35
2023-04-12T18:28:47.690Z,16.48
2023-04-12T18:31:15.493Z,26.85
2023-04-12T18:33:43.196Z,31.63
2023-04-12T18:36:11.276Z,25.05
2023-04-12T18:38:38.973Z,23.58
2023-04-12T18:41:06.368Z,26.63
2023-04-12T18:43:34.286Z,32.47
2023-04-12T18:46:01.606Z,52.80
2023-04-12T18:48:30.299Z,64.80
2023-04-12T18:50:59.360Z,60.40
2023-04-12T18:53:26.949Z,60.33
2023-04-12T18:55:54.530Z,50.38
2023-04-12T18:58:23.612Z,31.20
2023-04-12T19:00:51.304Z,31.70
2023-04-12T19:03:19.270Z,48.65
2023-04-12T19:05:46.859Z,79.63
2023-04-12T19:08:15.161Z,126.38
2023-04-12T19:10:42.711Z,74.30
2023-04-12T19:13:10.871Z,54.28
2023-04-12T19:15:38.447Z,42.38
2023-04-12T19:18:06.280Z,40.58
2023-04-12T19:20:33.812Z,30.10
2023-04-12T19:23:02.053Z,34.05
2023-04-12T19:25:33.120Z,38.58
2023-04-12T19:28:01.083Z,34.20
2023-04-12T19:30:31.271Z,39.08
2023-04-12T19:32:59.178Z,27.15
2023-04-12T19:35:28.786Z,34.15
2023-04-12T19:37:57.325Z,28.33
2023-04-12T19:40:24.839Z,33.80
2023-04-12T19:42:52.579Z,29.73
2023-04-12T19:45:20.021Z,32.80
2023-04-12T19:47:47.659Z,25.98
2023-04-12T19:50:15.643Z,30.55
2023-04-12T19:52:44.022Z,28.35
2023-04-12T19:55:11.870Z,33.63
2023-04-12T19:57:39.957Z,44.90
2023-04-12T20:00:19.320Z,79.22
2023-04-12T20:02:52.786Z,90.05
2023-04-12T20:05:20.718Z,55.95
2023-04-12T20:07:48.873Z,40.90
2023-04-12T20:10:16.517Z,41.30
2023-04-12T20:12:44.386Z,37.30
2023-04-12T20:15:11.928Z,38.83
2023-04-12T20:17:44.656Z,30.55
2023-04-12T20:20:13.957Z,27.87
2023-04-12T20:22:42.804Z,33.95
2023-04-12T20:25:11.346Z,24.98
2023-04-12T20:27:39.324Z,23.30
2023-04-12T20:30:08.761Z,21.20
2023-04-12T20:32:36.822Z,26.08
2023-04-12T20:35:04.736Z,21.52
2023-04-12T20:37:32.667Z,25.67
2023-04-12T20:40:00.159Z,19.65
2023-04-12T20:42:27.949Z,23.17
2023-04-12T20:44:55.321Z,29.48
2023-04-12T20:47:23.183Z,51.50
2023-04-12T20:49:50.725Z,34.35
2023-04-12T20:52:19.296Z,24.33
2023-04-12T20:54:48.171Z,24.83
2023-04-12T20:57:19.800Z,30.65
2023-04-12T20:59:47.312Z,21.38
2023-04-12T21:02:16.530Z,21.27
2023-04-12T21:04:45.120Z,21.77
2023-04-12T21:07:12.946Z,29.58
2023-04-12T21:09:40.293Z,40.58
2023-04-12T21:12:09.722Z,37.80
2023-04-12T21:14:37.804Z,47.45
2023-04-12T21:17:07.114Z,46.03
2023-04-12T21:19:41.959Z,45.47
2023-04-12T21:22:09.577Z,39.88
2023-04-12T21:24:38.548Z,41.65
2023-04-12T21:27:09.908Z,36.10
2023-04-12T21:29:41.173Z,42.22
2023-04-12T21:32:09.635Z,54.50
2023-04-12T21:34:37.393Z,66.28
2023-04-12T21:37:05.467Z,54.92
2023-04-12T21:39:33.144Z,55.42
2023-04-12T21:42:01.622Z,57.00
2023-04-12T21:44:28.934Z,54.42
2023-04-12T21:46:56.641Z,49.80
2023-04-12T21:49:24.056Z,43.63
2023-04-12T21:51:52.313Z,46.63
2023-04-12T21:54:20.296Z,62.30
2023-04-12T21:56:47.868Z,65.97
2023-04-12T21:59:15.223Z,68.93
2023-04-12T22:01:42.876Z,92.45
2023-04-12T22:04:10.212Z,102.63
2023-04-12T22:06:37.792Z,67.20
2023-04-12T22:09:05.366Z,61.33
2023-04-12T22:11:33.128Z,66.93
2023-04-12T22:14:00.490Z,57.05
2023-04-12T22:16:28.177Z,53.33
2023-04-12T22:18:55.731Z,50.92
2023-04-12T22:21:23.407Z,52.83
2023-04-12T22:23:50.718Z,44.10
2023-04-12T22:26:18.352Z,43.88
2023-04-12T22:28:48.370Z,38.35
2023-04-12T22:31:16.369Z,35.83
2023-04-12T22:33:47.312Z,37.75
2023-04-12T22:36:15.158Z,43.13
2023-04-12T22:38:42.503Z,39.83
2023-04-12T22:41:10.032Z,41.63
2023-04-12T22:43:42.040Z,45.55
2023-04-12T22:46:16.290Z,41.83
2023-04-12T22:48:47.821Z,39.30
2023-04-12T22:51:15.699Z,36.05
2023-04-12T22:53:43.449Z,33.88
2023-04-12T22:56:11.845Z,36.55
2023-04-12T22:58:40.547Z,45.08
2023-04-12T23:01:10.767Z,37.53
2023-04-12T23:03:38.451Z,34.67
2023-04-12T23:06:06.236Z,39.47
2023-04-12T23:08:36.512Z,33.97
2023-04-12T23:11:04.717Z,44.53
2023-04-12T23:13:35.412Z,37.97
2023-04-12T23:16:03.694Z,41.10
2023-04-12T23:18:31.188Z,41.55
2023-04-12T23:21:00.150Z,44.70
2023-04-12T23:23:27.502Z,39.35
2023-04-12T23:25:55.445Z,37.45
2023-04-12T23:28:24.280Z,41.20
2023-04-12T23:30:52.127Z,41.28
2023-04-12T23:33:20.627Z,41.08
2023-04-12T23:36:05.384Z,33.58
2023-04-12T23:38:33.881Z,36.22
2023-04-12T23:41:03.859Z,35.45
2023-04-12T23:43:32.528Z,45.55
2023-04-12T23:46:00.417Z,37.42
2023-04-12T23:48:28.013Z,42.45
2023-04-12T23:50:56.235Z,39.42
2023-04-12T23:53:23.535Z,46.17
2023-04-12T23:55:53.290Z,34.15
2023-04-12T23:58:21.094Z,34.13
